Terminal Aerodrome Forecast
Issued by NWS

Home | Current Version | Previous Version | Text Only | Print | Product List | Glossary On
Versions: 1 2 3 4 5 6 7 8 9 10 11 12 13
317
FTUS43 KGRR 221740
TAFJXN
TAF
KJXN 221740Z 2218/2318 16010G18KT P6SM BKN150
     FM230200 17009KT P6SM OVC060 WS020/20035KT
     FM230700 19006KT 4SM -SHRA BR OVC035
     FM230900 19006KT 4SM -SHRA BR OVC009
     FM231600 17005KT 2SM -RA BR OVC003=

USA.gov is the U.S. government's official web portal to all federal, state and local government web resources and services.